createdAt,value
2023-03-29T00:05:47.294Z,96941.75
2023-03-29T00:12:42.993Z,96933.41
2023-03-29T00:18:16.119Z,96927.59
2023-03-29T00:25:03.915Z,96930.75
2023-03-29T00:27:32.880Z,96931.63
2023-03-29T00:30:04.636Z,96941.66
2023-03-29T00:36:51.165Z,96941.88
2023-03-29T00:39:22.189Z,96931.84
2023-03-29T00:46:11.618Z,96942.81
2023-03-29T00:48:40.493Z,96937.75
2023-03-29T00:55:39.084Z,96933.66
2023-03-29T00:58:13.414Z,96940.34
2023-03-29T01:00:48.860Z,96935.38
2023-03-29T01:03:25.339Z,96924.53
2023-03-29T01:05:57.085Z,96927.88
2023-03-29T01:08:28.736Z,96919.47
2023-03-29T01:11:06.039Z,96915.34
2023-03-29T01:13:45.345Z,96913.72
2023-03-29T01:16:20.441Z,96907.97
2023-03-29T01:18:52.776Z,96908.69
2023-03-29T01:21:25.137Z,96892.94
2023-03-29T01:24:20.298Z,96911.22
2023-03-29T01:31:08.713Z,96907.78
2023-03-29T01:38:00.257Z,96901.13
2023-03-29T01:40:29.348Z,96916.94
2023-03-29T01:47:22.282Z,96907.78
2023-03-29T01:49:56.752Z,96907.75
2023-03-29T01:56:51.664Z,96902.03
2023-03-29T01:59:22.921Z,96898.72
2023-03-29T02:01:54.001Z,96893.66
2023-03-29T02:04:28.466Z,96894.38
2023-03-29T02:06:59.620Z,96896.78
2023-03-29T02:09:29.528Z,96890.94
2023-03-29T02:11:59.970Z,96890.13
2023-03-29T02:14:29.765Z,96881.75
2023-03-29T02:16:58.659Z,96888.38
2023-03-29T02:19:30.725Z,96887.50
2023-03-29T02:22:04.855Z,96889.22
2023-03-29T02:24:37.006Z,96885.81
2023-03-29T02:27:06.450Z,96887.47
2023-03-29T02:29:35.805Z,96884.97
2023-03-29T02:32:08.783Z,96884.03
2023-03-29T02:34:43.698Z,96889.84
2023-03-29T02:37:15.999Z,96883.16
2023-03-29T02:39:45.079Z,96878.09
2023-03-29T02:42:15.201Z,96879.06
2023-03-29T02:44:45.316Z,96866.50
2023-03-29T02:47:17.891Z,96872.25
2023-03-29T02:49:48.419Z,96873.84
2023-03-29T02:52:19.765Z,96872.25
2023-03-29T02:54:50.705Z,96871.16
2023-03-29T02:57:26.902Z,96860.16
2023-03-29T03:04:08.550Z,96850.56
2023-03-29T03:06:39.416Z,96854.56
2023-03-29T03:13:21.849Z,96846.22
2023-03-29T03:15:51.413Z,96842.88
2023-03-29T03:18:20.445Z,96847.06
2023-03-29T03:20:57.630Z,96837.00
2023-03-29T03:26:30.374Z,96832.09
2023-03-29T03:33:25.142Z,96857.91
2023-03-29T03:44:56.443Z,96850.41
2023-03-29T03:47:25.862Z,96838.72
2023-03-29T03:54:13.397Z,96825.28
2023-03-29T03:56:42.511Z,96812.78
2023-03-29T04:03:32.152Z,96801.81
2023-03-29T04:10:16.371Z,96802.56
2023-03-29T04:12:46.274Z,96813.44
2023-03-29T04:19:35.781Z,96808.13
2023-03-29T04:22:04.763Z,96808.75
2023-03-29T04:24:34.178Z,96807.28
2023-03-29T04:27:03.664Z,96797.94
2023-03-29T04:29:32.900Z,96805.31
2023-03-29T04:32:02.269Z,96800.44
2023-03-29T04:34:31.354Z,96801.38
2023-03-29T04:37:03.002Z,96813.91
2023-03-29T04:39:34.312Z,96807.34
2023-03-29T04:42:04.484Z,96804.00
2023-03-29T04:44:34.417Z,96802.19
2023-03-29T04:47:04.525Z,96804.63
2023-03-29T04:49:34.647Z,96811.19
2023-03-29T04:56:24.438Z,96816.81
2023-03-29T04:58:53.941Z,96805.72
2023-03-29T05:05:48.045Z,96803.41
2023-03-29T05:08:17.753Z,96809.78
2023-03-29T05:15:00.897Z,96801.38
2023-03-29T05:21:48.043Z,96802.97
2023-03-29T05:24:18.370Z,96805.47
2023-03-29T05:31:09.743Z,96796.31
2023-03-29T05:33:39.624Z,96806.25
2023-03-29T05:44:54.469Z,96813.13
2023-03-29T05:51:46.180Z,96811.28
2023-03-29T05:54:15.587Z,96814.47
2023-03-29T06:01:05.382Z,96815.13
2023-03-29T06:03:37.432Z,96810.97
2023-03-29T06:06:07.777Z,96812.00
2023-03-29T06:08:38.725Z,96815.34
2023-03-29T06:11:09.458Z,96807.53
2023-03-29T06:13:39.459Z,96818.75
2023-03-29T06:16:09.786Z,96818.47
2023-03-29T06:18:40.479Z,96816.28
2023-03-29T06:21:11.050Z,96821.97
2023-03-29T06:23:42.286Z,96822.63
2023-03-29T06:30:30.248Z,96817.78
2023-03-29T06:37:11.557Z,96818.66
2023-03-29T06:39:43.244Z,96825.09
2023-03-29T06:46:25.299Z,96828.03
2023-03-29T06:48:54.842Z,96829.13
2023-03-29T06:51:24.550Z,96831.25
2023-03-29T06:58:14.144Z,96831.53
2023-03-29T07:00:43.322Z,96834.56
2023-03-29T07:07:54.192Z,96835.59
2023-03-29T07:10:23.436Z,96825.50
2023-03-29T07:17:13.647Z,96836.66
2023-03-29T07:19:45.907Z,96829.00
2023-03-29T07:22:15.622Z,96831.78
2023-03-29T07:24:45.244Z,96831.72
2023-03-29T07:27:15.145Z,96822.59
2023-03-29T07:33:53.122Z,96831.41
2023-03-29T07:36:22.622Z,96836.44
2023-03-29T07:47:57.524Z,96839.00
2023-03-29T07:50:29.421Z,96829.88
2023-03-29T07:52:58.714Z,96832.41
2023-03-29T07:55:27.718Z,96831.78
2023-03-29T07:57:57.119Z,96837.03
2023-03-29T08:00:26.467Z,96826.34
2023-03-29T08:02:56.334Z,96837.28
2023-03-29T08:05:40.199Z,96823.72
2023-03-29T08:08:11.815Z,96835.09
2023-03-29T08:15:19.639Z,96820.78
2023-03-29T08:17:49.300Z,96825.97
2023-03-29T08:24:38.847Z,96820.56
2023-03-29T08:27:08.356Z,96813.69
2023-03-29T08:33:48.945Z,96819.28
2023-03-29T08:36:18.506Z,96816.69
2023-03-29T08:43:45.320Z,96819.22
2023-03-29T08:46:23.953Z,96821.38
2023-03-29T08:53:08.107Z,96814.44
2023-03-29T09:00:06.004Z,96809.41
2023-03-29T09:02:37.083Z,96812.53
2023-03-29T09:09:21.737Z,96813.75
2023-03-29T09:11:59.627Z,96814.25
2023-03-29T09:19:00.191Z,96806.47
2023-03-29T09:21:34.082Z,96800.22
2023-03-29T09:24:16.487Z,96801.28
2023-03-29T09:26:50.270Z,96800.34
2023-03-29T09:33:44.091Z,96797.28
2023-03-29T09:40:29.284Z,96789.47
2023-03-29T09:47:26.482Z,96798.22
2023-03-29T09:54:21.879Z,96793.31
2023-03-29T09:56:54.012Z,96785.72
2023-03-29T09:59:23.367Z,96793.28
2023-03-29T10:01:53.555Z,96788.69
2023-03-29T10:04:23.211Z,96774.06
2023-03-29T10:11:23.945Z,96780.03
2023-03-29T10:13:57.864Z,96775.59
2023-03-29T10:20:51.979Z,96757.84
2023-03-29T10:23:22.183Z,96762.34
2023-03-29T10:30:14.863Z,96742.94
2023-03-29T10:32:44.498Z,96737.03
2023-03-29T10:35:24.112Z,96734.28
2023-03-29T10:37:55.348Z,96725.63
2023-03-29T10:44:44.743Z,96733.47
2023-03-29T10:51:40.383Z,96723.47
2023-03-29T10:54:15.195Z,96725.84
2023-03-29T11:00:58.568Z,96718.25
2023-03-29T11:03:49.704Z,96712.44
2023-03-29T11:10:48.089Z,96717.22
2023-03-29T11:13:23.829Z,96712.00
2023-03-29T11:16:02.085Z,96715.84
2023-03-29T11:18:49.358Z,96705.28
2023-03-29T11:25:51.271Z,96719.00
2023-03-29T11:32:50.125Z,96704.63
2023-03-29T11:35:45.188Z,96711.97
2023-03-29T11:42:32.818Z,96696.94
2023-03-29T11:45:02.851Z,96690.28
2023-03-29T11:51:55.095Z,96684.03
2023-03-29T11:54:29.593Z,96688.25
2023-03-29T12:01:24.331Z,96672.69
2023-03-29T12:03:55.998Z,96682.97
2023-03-29T12:06:28.873Z,96664.63
2023-03-29T12:13:19.607Z,96667.78
2023-03-29T12:15:52.555Z,96655.78
2023-03-29T12:22:42.387Z,96647.41
2023-03-29T12:25:18.790Z,96647.34
2023-03-29T12:32:18.588Z,96648.69
2023-03-29T12:35:05.811Z,96639.88
2023-03-29T12:42:05.142Z,96633.75
2023-03-29T12:44:35.468Z,96625.88
2023-03-29T12:47:09.473Z,96631.31
2023-03-29T12:49:44.100Z,96624.44
2023-03-29T12:52:27.541Z,96606.41
2023-03-29T12:55:01.348Z,96616.22
2023-03-29T12:57:42.617Z,96610.66
2023-03-29T13:00:29.216Z,96622.00
2023-03-29T13:07:17.173Z,96608.22
2023-03-29T13:14:03.502Z,96598.88
2023-03-29T13:16:35.362Z,96594.44
2023-03-29T13:23:32.024Z,96585.59
2023-03-29T13:26:20.056Z,96592.00
2023-03-29T13:33:30.751Z,96557.31
2023-03-29T13:36:05.742Z,96567.69
2023-03-29T13:42:44.048Z,96546.50
2023-03-29T13:49:41.508Z,96544.63
2023-03-29T13:52:18.069Z,96546.00
2023-03-29T13:59:06.035Z,96539.91
2023-03-29T14:01:41.709Z,96537.00
2023-03-29T14:08:27.627Z,96527.81
2023-03-29T14:15:25.394Z,96523.72
2023-03-29T14:18:00.822Z,96524.69
2023-03-29T14:24:49.608Z,96518.72
2023-03-29T14:27:21.875Z,96498.88
2023-03-29T14:34:04.409Z,96490.78
2023-03-29T14:36:35.034Z,96492.69
2023-03-29T14:39:06.980Z,96482.59
2023-03-29T14:50:29.716Z,96495.53
2023-03-29T14:53:00.227Z,96496.16
2023-03-29T14:59:56.069Z,96490.28
2023-03-29T15:02:27.022Z,96486.81
2023-03-29T15:05:03.829Z,96487.53
2023-03-29T15:07:36.909Z,96477.59
2023-03-29T15:10:08.017Z,96490.03
2023-03-29T15:12:38.131Z,96471.41
2023-03-29T15:15:12.346Z,96465.28
2023-03-29T15:17:50.452Z,96475.53
2023-03-29T15:20:24.970Z,96476.53
2023-03-29T15:23:01.851Z,96473.44
2023-03-29T15:25:35.450Z,96467.69
2023-03-29T15:28:04.757Z,96473.31
2023-03-29T15:30:38.762Z,96469.72
2023-03-29T15:33:16.953Z,96473.63
2023-03-29T15:40:10.246Z,96455.88
2023-03-29T15:51:24.753Z,96460.91
2023-03-29T15:53:54.159Z,96459.97
2023-03-29T16:00:43.788Z,96466.31
2023-03-29T16:07:28.237Z,96469.34
2023-03-29T16:09:58.304Z,96480.66
2023-03-29T16:16:48.238Z,96455.69
2023-03-29T16:19:17.348Z,96456.13
2023-03-29T16:26:06.818Z,96465.88
2023-03-29T16:33:06.422Z,96474.41
2023-03-29T16:35:37.639Z,96477.66
2023-03-29T16:42:18.646Z,96469.78
2023-03-29T16:44:47.711Z,96477.09
2023-03-29T16:51:24.426Z,96460.06
2023-03-29T16:58:11.565Z,96467.56
2023-03-29T17:00:41.010Z,96477.13
2023-03-29T17:07:30.558Z,96475.59
2023-03-29T17:09:59.752Z,96470.44
2023-03-29T17:12:29.277Z,96470.56
2023-03-29T17:14:58.654Z,96470.72
2023-03-29T17:17:28.007Z,96467.97
2023-03-29T17:19:57.554Z,96468.44
2023-03-29T17:22:27.702Z,96468.03
2023-03-29T17:29:17.380Z,96470.88
2023-03-29T17:31:50.578Z,96472.72
2023-03-29T17:38:34.268Z,96464.66
2023-03-29T17:41:04.650Z,96468.03
2023-03-29T17:48:00.364Z,96477.88
2023-03-29T17:50:29.808Z,96478.56
2023-03-29T17:53:00.543Z,96477.19
2023-03-29T17:59:41.630Z,96485.03
2023-03-29T18:02:12.704Z,96497.13
2023-03-29T18:09:02.985Z,96499.59
2023-03-29T18:11:32.390Z,96502.19
2023-03-29T18:18:19.416Z,96516.31
2023-03-29T18:25:09.845Z,96509.13
2023-03-29T18:27:39.730Z,96514.94
2023-03-29T18:34:27.313Z,96514.25
2023-03-29T18:36:56.507Z,96520.91
2023-03-29T18:43:45.407Z,96531.38
2023-03-29T18:55:16.598Z,96534.59
2023-03-29T18:57:45.891Z,96535.09
2023-03-29T19:04:29.156Z,96530.03
2023-03-29T19:07:00.055Z,96533.28
2023-03-29T19:09:29.681Z,96529.72
2023-03-29T19:12:00.321Z,96541.72
2023-03-29T19:14:29.928Z,96532.69
2023-03-29T19:16:59.014Z,96530.22
2023-03-29T19:19:30.039Z,96538.16
2023-03-29T19:22:00.595Z,96544.38
2023-03-29T19:24:30.622Z,96544.28
2023-03-29T19:31:06.716Z,96542.50
2023-03-29T19:33:36.189Z,96551.47
2023-03-29T19:40:27.730Z,96543.84
2023-03-29T19:42:56.714Z,96538.66
2023-03-29T19:45:28.161Z,96538.88
2023-03-29T19:47:57.489Z,96542.88
2023-03-29T19:50:27.577Z,96545.19
2023-03-29T19:52:57.494Z,96536.28
2023-03-29T19:55:28.737Z,96542.22
2023-03-29T19:57:57.827Z,96533.59
2023-03-29T20:00:27.747Z,96536.59
2023-03-29T20:02:57.975Z,96536.25
2023-03-29T20:05:27.159Z,96532.69
2023-03-29T20:07:56.547Z,96524.81
2023-03-29T20:10:27.170Z,96524.00
2023-03-29T20:12:57.315Z,96517.00
2023-03-29T20:15:27.221Z,96519.41
2023-03-29T20:17:59.863Z,96513.91
2023-03-29T20:20:31.789Z,96503.28
2023-03-29T20:23:05.498Z,96504.78
2023-03-29T20:25:38.140Z,96506.94
2023-03-29T20:28:07.432Z,96503.72
2023-03-29T20:30:36.843Z,96503.94
2023-03-29T20:33:05.991Z,96492.81
2023-03-29T20:35:35.374Z,96493.31
2023-03-29T20:42:18.380Z,96480.75
2023-03-29T20:44:50.853Z,96478.13
2023-03-29T20:56:10.074Z,96476.97
2023-03-29T20:58:42.560Z,96485.09
2023-03-29T21:01:12.475Z,96481.81
2023-03-29T21:03:42.816Z,96471.09
2023-03-29T21:06:14.454Z,96474.28
2023-03-29T21:08:45.992Z,96474.34
2023-03-29T21:11:16.710Z,96467.63
2023-03-29T21:13:47.767Z,96464.09
2023-03-29T21:16:16.984Z,96464.28
2023-03-29T21:18:46.051Z,96474.59
2023-03-29T21:21:15.759Z,96458.97
2023-03-29T21:23:46.036Z,96467.47
2023-03-29T21:26:15.897Z,96461.47
2023-03-29T21:28:44.892Z,96463.28
2023-03-29T21:31:15.355Z,96459.78
2023-03-29T21:37:51.495Z,96444.31
2023-03-29T21:40:21.106Z,96445.66
2023-03-29T21:47:10.091Z,96426.72
2023-03-29T21:49:40.006Z,96437.25
2023-03-29T21:52:09.206Z,96437.69
2023-03-29T21:54:38.608Z,96431.84
2023-03-29T21:57:07.871Z,96433.09
2023-03-29T21:59:37.196Z,96434.63
2023-03-29T22:02:06.432Z,96430.59
2023-03-29T22:04:37.882Z,96429.31
2023-03-29T22:07:08.708Z,96425.47
2023-03-29T22:09:38.392Z,96424.69
2023-03-29T22:12:07.686Z,96424.75
2023-03-29T22:14:37.089Z,96415.78
2023-03-29T22:17:07.501Z,96414.91
2023-03-29T22:19:39.640Z,96424.34
2023-03-29T22:22:14.189Z,96418.16
2023-03-29T22:24:43.922Z,96412.72
2023-03-29T22:27:13.323Z,96401.38
2023-03-29T22:29:44.148Z,96405.44
2023-03-29T22:32:13.262Z,96407.22
2023-03-29T22:34:43.873Z,96401.88
2023-03-29T22:37:12.963Z,96404.06
2023-03-29T22:39:42.172Z,96409.00
2023-03-29T22:42:11.459Z,96408.69
2023-03-29T22:44:40.452Z,96406.81
2023-03-29T22:47:09.633Z,96402.81
2023-03-29T22:58:44.425Z,96386.25
2023-03-29T23:01:14.162Z,96374.84
2023-03-29T23:07:56.163Z,96373.81
2023-03-29T23:10:29.255Z,96379.63
2023-03-29T23:13:09.094Z,96370.34
2023-03-29T23:15:43.125Z,96374.28
2023-03-29T23:18:13.219Z,96368.94
2023-03-29T23:20:42.528Z,96366.78
2023-03-29T23:23:11.619Z,96366.31
2023-03-29T23:25:40.889Z,96367.00
2023-03-29T23:28:10.931Z,96359.63
2023-03-29T23:30:41.677Z,96363.81
2023-03-29T23:33:11.987Z,96363.50
2023-03-29T23:39:52.685Z,96341.19
2023-03-29T23:42:21.856Z,96348.03
2023-03-29T23:49:04.405Z,96346.25
2023-03-29T23:51:35.241Z,96350.25
2023-03-29T23:58:16.851Z,96348.84
